createdAt,value
2017-04-09T00:00:00.616Z,0
2017-04-09T00:01:00.599Z,0
2017-04-09T00:02:00.901Z,0
2017-04-09T00:03:00.593Z,0
2017-04-09T00:04:00.579Z,0
2017-04-09T00:05:00.581Z,0
2017-04-09T00:06:00.560Z,0
2017-04-09T00:07:00.829Z,0
2017-04-09T00:08:00.551Z,0
2017-04-09T00:09:00.548Z,0
2017-04-09T00:10:00.530Z,0
2017-04-09T00:11:00.525Z,0
2017-04-09T00:12:00.819Z,0
2017-04-09T00:13:00.511Z,0
2017-04-09T00:14:00.504Z,0
2017-04-09T00:15:00.501Z,0
2017-04-09T00:16:00.520Z,0
2017-04-09T00:17:00.829Z,0
2017-04-09T00:18:00.475Z,0
2017-04-09T00:19:00.464Z,0
2017-04-09T00:20:00.455Z,0
2017-04-09T00:21:00.452Z,0
2017-04-09T00:22:00.695Z,0
2017-04-09T00:23:00.432Z,0
2017-04-09T00:24:00.431Z,0
2017-04-09T00:25:00.414Z,0
2017-04-09T00:26:00.408Z,0
2017-04-09T00:27:00.772Z,0
2017-04-09T00:28:00.391Z,0
2017-04-09T00:29:00.382Z,0
2017-04-09T00:30:00.073Z,0
2017-04-09T00:31:00.378Z,0
2017-04-09T00:32:00.661Z,0
2017-04-09T00:33:00.363Z,0
2017-04-09T00:34:00.342Z,0
2017-04-09T00:35:00.337Z,0
2017-04-09T00:36:00.328Z,0
2017-04-09T00:37:00.567Z,0
2017-04-09T00:38:00.353Z,0
2017-04-09T00:39:00.304Z,0
2017-04-09T00:40:00.301Z,0
2017-04-09T00:41:00.285Z,0
2017-04-09T00:42:00.531Z,0
2017-04-09T00:43:00.298Z,0
2017-04-09T00:44:00.258Z,0
2017-04-09T00:45:00.257Z,0
2017-04-09T00:46:00.242Z,0
2017-04-09T00:47:00.489Z,0
2017-04-09T00:48:00.221Z,0
2017-04-09T00:49:00.217Z,0
2017-04-09T00:50:00.212Z,0
2017-04-09T00:51:00.198Z,0
2017-04-09T00:52:00.496Z,0
2017-04-09T00:53:00.199Z,0
2017-04-09T00:54:00.186Z,0
2017-04-09T00:55:00.171Z,0
2017-04-09T00:56:00.156Z,0
2017-04-09T00:57:00.505Z,0
2017-04-09T00:58:00.139Z,0
2017-04-09T00:59:00.133Z,0
2017-04-09T00:59:59.825Z,0
2017-04-09T01:01:00.120Z,0
2017-04-09T01:02:00.105Z,0
2017-04-09T01:03:00.348Z,0
2017-04-09T01:04:00.095Z,0
2017-04-09T01:05:00.080Z,0
2017-04-09T01:06:00.070Z,0
2017-04-09T01:07:00.060Z,0
2017-04-09T01:08:00.301Z,0
2017-04-09T01:08:59.745Z,0
2017-04-09T01:10:00.032Z,0
2017-04-09T01:11:00.030Z,0
2017-04-09T01:12:00.013Z,0
2017-04-09T01:13:00.014Z,0
2017-04-09T01:14:00.005Z,0
2017-04-09T01:15:00.000Z,0
2017-04-09T01:15:59.980Z,0
2017-04-09T01:16:59.986Z,0
2017-04-09T01:18:00.216Z,0
2017-04-09T01:18:59.961Z,0
2017-04-09T01:19:59.650Z,0
2017-04-09T01:20:59.946Z,0
2017-04-09T01:21:59.936Z,0
2017-04-09T01:22:59.972Z,0
2017-04-09T01:23:59.917Z,0
2017-04-09T01:24:59.905Z,0
2017-04-09T01:25:59.895Z,0
2017-04-09T01:26:59.890Z,0
2017-04-09T01:28:00.179Z,0
2017-04-09T01:28:59.877Z,0
2017-04-09T01:29:59.865Z,0
2017-04-09T01:30:59.856Z,0
2017-04-09T01:31:59.844Z,0
2017-04-09T01:33:00.094Z,0
2017-04-09T01:33:59.832Z,0
2017-04-09T01:34:59.821Z,0
2017-04-09T01:35:59.816Z,0
2017-04-09T01:36:59.849Z,0
2017-04-09T01:38:00.145Z,0
2017-04-09T01:38:59.787Z,0
2017-04-09T01:39:59.784Z,0
2017-04-09T01:40:59.776Z,0
2017-04-09T01:41:59.776Z,0
2017-04-09T01:43:00.013Z,0
2017-04-09T01:43:59.753Z,0
2017-04-09T01:44:59.746Z,0
2017-04-09T01:45:59.731Z,0
2017-04-09T01:46:59.725Z,0
2017-04-09T01:47:59.666Z,0
2017-04-09T01:48:59.409Z,0
2017-04-09T01:49:59.703Z,0
2017-04-09T01:50:59.697Z,0
2017-04-09T01:51:59.691Z,0
2017-04-09T01:52:59.938Z,0
2017-04-09T01:53:59.670Z,0
2017-04-09T01:54:59.692Z,0
2017-04-09T01:55:59.653Z,0
2017-04-09T01:56:59.649Z,0
2017-04-09T01:57:59.942Z,0
2017-04-09T01:58:59.629Z,0
2017-04-09T01:59:59.624Z,0
2017-04-09T02:00:59.615Z,0
2017-04-09T02:01:59.603Z,0
2017-04-09T02:02:59.850Z,0
2017-04-09T02:03:59.588Z,0
2017-04-09T02:04:59.584Z,0
2017-04-09T02:05:59.572Z,0
2017-04-09T02:06:59.569Z,0
2017-04-09T02:07:59.558Z,0
2017-04-09T02:08:59.556Z,0
2017-04-09T02:09:59.235Z,0
2017-04-09T02:10:59.534Z,0
2017-04-09T02:11:59.525Z,0
2017-04-09T02:12:59.567Z,0
2017-04-09T02:13:59.511Z,0
2017-04-09T02:14:59.503Z,0
2017-04-09T02:15:59.493Z,0
2017-04-09T02:16:59.491Z,0
2017-04-09T02:17:59.781Z,0
2017-04-09T02:18:59.212Z,0
2017-04-09T02:19:59.466Z,0
2017-04-09T02:20:59.454Z,0
2017-04-09T02:21:59.445Z,0
2017-04-09T02:22:59.688Z,0
2017-04-09T02:23:59.428Z,0
2017-04-09T02:24:59.429Z,0
2017-04-09T02:25:59.412Z,0
2017-04-09T02:26:59.405Z,0
2017-04-09T02:27:59.696Z,0
2017-04-09T02:28:59.388Z,0
2017-04-09T02:29:59.389Z,0
2017-04-09T02:30:59.373Z,0
2017-04-09T02:31:59.371Z,0
2017-04-09T02:32:59.611Z,0
2017-04-09T02:33:59.350Z,0
2017-04-09T02:34:59.343Z,0
2017-04-09T02:35:59.370Z,0
2017-04-09T02:36:59.331Z,0
2017-04-09T02:37:59.577Z,0
2017-04-09T02:38:59.326Z,0
2017-04-09T02:39:59.305Z,0
2017-04-09T02:40:59.295Z,0
2017-04-09T02:41:59.296Z,0
2017-04-09T02:42:59.628Z,0
2017-04-09T02:43:59.276Z,0
2017-04-09T02:44:59.271Z,0
2017-04-09T02:45:58.952Z,0
2017-04-09T02:46:59.253Z,0
2017-04-09T02:47:59.494Z,0
2017-04-09T02:48:59.242Z,0
2017-04-09T02:49:58.921Z,0
2017-04-09T02:50:58.914Z,0
2017-04-09T02:51:59.209Z,0
2017-04-09T02:52:59.555Z,0
2017-04-09T02:53:59.193Z,0
2017-04-09T02:54:59.187Z,0
2017-04-09T02:55:59.178Z,0
2017-04-09T02:56:59.174Z,0
2017-04-09T02:57:59.417Z,0
2017-04-09T02:58:59.155Z,0
2017-04-09T02:59:59.154Z,0
2017-04-09T03:00:59.141Z,0
2017-04-09T03:01:59.135Z,0
2017-04-09T03:02:59.381Z,0
2017-04-09T03:03:59.120Z,0
2017-04-09T03:04:59.112Z,0
2017-04-09T03:05:59.102Z,0
2017-04-09T03:06:59.098Z,0
2017-04-09T03:07:59.340Z,0
2017-04-09T03:08:59.082Z,0
2017-04-09T03:09:59.077Z,0
2017-04-09T03:10:59.065Z,0
2017-04-09T03:11:59.059Z,0
2017-04-09T03:12:59.355Z,0
2017-04-09T03:13:59.044Z,0
2017-04-09T03:14:59.034Z,0
2017-04-09T03:15:59.028Z,0
2017-04-09T03:16:59.016Z,0
2017-04-09T03:17:59.265Z,0
2017-04-09T03:18:59.002Z,0
2017-04-09T03:19:58.998Z,0
2017-04-09T03:20:58.995Z,0
2017-04-09T03:21:58.977Z,0
2017-04-09T03:22:59.225Z,0
2017-04-09T03:23:58.969Z,0
2017-04-09T03:24:58.954Z,0
2017-04-09T03:25:58.949Z,0
2017-04-09T03:26:58.940Z,0
2017-04-09T03:27:59.287Z,0
2017-04-09T03:28:58.930Z,0
2017-04-09T03:29:58.916Z,0
2017-04-09T03:30:58.908Z,0
2017-04-09T03:31:58.901Z,0
2017-04-09T03:32:59.195Z,0
2017-04-09T03:33:58.884Z,0
2017-04-09T03:34:58.877Z,0
2017-04-09T03:35:58.871Z,0
2017-04-09T03:36:58.861Z,0
2017-04-09T03:37:59.105Z,0
2017-04-09T03:38:58.846Z,0
2017-04-09T03:39:58.833Z,0
2017-04-09T03:40:58.869Z,0
2017-04-09T03:41:58.819Z,0
2017-04-09T03:42:59.115Z,0
2017-04-09T03:43:58.501Z,0
2017-04-09T03:44:58.798Z,0
2017-04-09T03:45:58.788Z,0
2017-04-09T03:46:58.480Z,0
2017-04-09T03:47:59.024Z,0
2017-04-09T03:48:58.774Z,0
2017-04-09T03:49:58.762Z,0
2017-04-09T03:50:58.446Z,0
2017-04-09T03:51:58.441Z,0
2017-04-09T03:52:58.982Z,0
2017-04-09T03:53:58.725Z,0
2017-04-09T03:54:58.714Z,0
2017-04-09T03:55:58.710Z,0
2017-04-09T03:56:58.700Z,0
2017-04-09T03:57:59.045Z,0
2017-04-09T03:58:58.687Z,0
2017-04-09T03:59:58.677Z,0
2017-04-09T04:00:58.676Z,0
2017-04-09T04:01:58.669Z,0
2017-04-09T04:02:59.008Z,0
2017-04-09T04:03:58.655Z,0
2017-04-09T04:04:58.642Z,0
2017-04-09T04:05:58.669Z,0
2017-04-09T04:06:58.626Z,0
2017-04-09T04:07:58.869Z,0
2017-04-09T04:08:58.613Z,0
2017-04-09T04:09:58.600Z,0
2017-04-09T04:10:58.599Z,0
2017-04-09T04:11:58.588Z,0
2017-04-09T04:12:58.826Z,0
2017-04-09T04:13:58.569Z,0
2017-04-09T04:14:58.258Z,0
2017-04-09T04:15:58.557Z,0
2017-04-09T04:16:58.550Z,0
2017-04-09T04:17:58.792Z,0
2017-04-09T04:18:58.537Z,0
2017-04-09T04:19:58.530Z,0
2017-04-09T04:20:58.220Z,0
2017-04-09T04:21:58.512Z,0
2017-04-09T04:22:58.752Z,0
2017-04-09T04:23:58.509Z,5
2017-04-09T04:24:58.485Z,5
2017-04-09T04:25:58.481Z,5
2017-04-09T04:26:58.479Z,5
2017-04-09T04:27:58.716Z,5
2017-04-09T04:28:58.457Z,5
2017-04-09T04:29:58.448Z,5
2017-04-09T04:30:58.437Z,5
2017-04-09T04:31:58.432Z,5
2017-04-09T04:32:58.678Z,10
2017-04-09T04:33:58.154Z,10
2017-04-09T04:34:58.409Z,10
2017-04-09T04:35:58.401Z,10
2017-04-09T04:36:58.392Z,10
2017-04-09T04:37:58.682Z,10
2017-04-09T04:38:58.380Z,10
2017-04-09T04:39:58.370Z,10
2017-04-09T04:40:58.364Z,10
2017-04-09T04:41:58.358Z,10
2017-04-09T04:42:58.704Z,10
2017-04-09T04:43:58.346Z,15
2017-04-09T04:44:58.334Z,15
2017-04-09T04:45:58.323Z,15
2017-04-09T04:46:58.320Z,15
2017-04-09T04:47:58.561Z,15
2017-04-09T04:48:58.303Z,15
2017-04-09T04:49:58.299Z,15
2017-04-09T04:50:58.283Z,20
2017-04-09T04:51:58.285Z,20
2017-04-09T04:52:58.524Z,20
2017-04-09T04:53:58.265Z,20
2017-04-09T04:54:58.258Z,20
2017-04-09T04:55:58.244Z,25
2017-04-09T04:56:58.239Z,25
2017-04-09T04:57:58.535Z,25
2017-04-09T04:58:58.233Z,30
2017-04-09T04:59:58.222Z,30
2017-04-09T05:00:58.206Z,30
2017-04-09T05:01:58.200Z,30
2017-04-09T05:02:58.447Z,35
2017-04-09T05:03:58.189Z,35
2017-04-09T05:04:58.182Z,35
2017-04-09T05:05:58.167Z,35
2017-04-09T05:06:58.168Z,35
2017-04-09T05:07:58.505Z,40
2017-04-09T05:08:58.180Z,40
2017-04-09T05:09:58.137Z,40
2017-04-09T05:10:58.129Z,40
2017-04-09T05:11:58.126Z,45
2017-04-09T05:12:57.823Z,45
2017-04-09T05:13:58.420Z,45
2017-04-09T05:14:58.102Z,50
2017-04-09T05:15:58.100Z,50
2017-04-09T05:16:58.099Z,55
2017-04-09T05:17:58.084Z,55
2017-04-09T05:18:58.321Z,60
2017-04-09T05:19:58.066Z,60
2017-04-09T05:20:58.055Z,65
2017-04-09T05:21:58.048Z,65
2017-04-09T05:22:58.046Z,65
2017-04-09T05:23:58.321Z,65
2017-04-09T05:24:58.024Z,65
2017-04-09T05:25:58.015Z,65
2017-04-09T05:26:58.008Z,65
2017-04-09T05:27:58.001Z,70
2017-04-09T05:28:58.299Z,70
2017-04-09T05:29:57.988Z,70
2017-04-09T05:30:57.981Z,70
2017-04-09T05:31:57.975Z,75
2017-04-09T05:32:57.966Z,75
2017-04-09T05:33:58.205Z,75
2017-04-09T05:34:57.949Z,80
2017-04-09T05:35:57.941Z,85
2017-04-09T05:36:57.937Z,90
2017-04-09T05:37:57.927Z,95
2017-04-09T05:38:58.275Z,100
2017-04-09T05:39:57.920Z,105
2017-04-09T05:40:57.907Z,105
2017-04-09T05:41:57.901Z,110
2017-04-09T05:42:57.893Z,115
2017-04-09T05:43:58.268Z,115
2017-04-09T05:44:57.876Z,115
2017-04-09T05:45:57.873Z,115
2017-04-09T05:46:57.864Z,120
2017-04-09T05:47:57.854Z,125
2017-04-09T05:48:58.107Z,130
2017-04-09T05:49:57.546Z,130
2017-04-09T05:50:57.836Z,135
2017-04-09T05:51:57.827Z,145
2017-04-09T05:52:57.823Z,150
2017-04-09T05:53:58.068Z,160
2017-04-09T05:54:57.808Z,165
2017-04-09T05:55:57.801Z,170
2017-04-09T05:56:57.798Z,175
2017-04-09T05:57:57.788Z,175
2017-04-09T05:58:57.728Z,180
2017-04-09T05:59:57.776Z,180
2017-04-09T06:00:57.771Z,180
2017-04-09T06:01:57.762Z,180
2017-04-09T06:02:57.760Z,180
2017-04-09T06:03:58.056Z,180
2017-04-09T06:04:57.745Z,180
2017-04-09T06:05:57.738Z,180
2017-04-09T06:06:57.426Z,185
2017-04-09T06:07:57.736Z,185
2017-04-09T06:08:58.077Z,185
2017-04-09T06:09:57.711Z,190
2017-04-09T06:10:57.714Z,190
2017-04-09T06:11:57.696Z,195
2017-04-09T06:12:57.389Z,200
2017-04-09T06:13:57.942Z,205
2017-04-09T06:14:57.677Z,215
2017-04-09T06:15:57.366Z,220
2017-04-09T06:16:57.662Z,220
2017-04-09T06:17:57.692Z,220
2017-04-09T06:18:57.661Z,220
2017-04-09T06:19:57.396Z,220
2017-04-09T06:20:57.679Z,225
2017-04-09T06:21:57.331Z,230
2017-04-09T06:22:57.330Z,235
2017-04-09T06:23:57.875Z,235
2017-04-09T06:24:57.618Z,235
2017-04-09T06:25:57.005Z,235
2017-04-09T06:26:57.607Z,240
2017-04-09T06:27:57.605Z,250
2017-04-09T06:28:57.847Z,255
2017-04-09T06:29:57.594Z,255
2017-04-09T06:30:57.582Z,260
2017-04-09T06:31:57.584Z,265
2017-04-09T06:32:57.571Z,275
2017-04-09T06:33:57.567Z,285
2017-04-09T06:34:57.255Z,290
2017-04-09T06:35:57.255Z,290
2017-04-09T06:36:57.552Z,285
2017-04-09T06:37:57.545Z,285
2017-04-09T06:38:57.848Z,285
2017-04-09T06:39:57.539Z,290
2017-04-09T06:40:56.925Z,305
2017-04-09T06:41:57.230Z,305
2017-04-09T06:42:57.532Z,305
2017-04-09T06:43:57.776Z,305
2017-04-09T06:44:57.524Z,305
2017-04-09T06:45:57.505Z,305
2017-04-09T06:46:57.499Z,305
2017-04-09T06:47:57.520Z,305
2017-04-09T06:48:57.844Z,305
2017-04-09T06:49:57.489Z,305
2017-04-09T06:50:57.483Z,315
2017-04-09T06:51:57.479Z,320
2017-04-09T06:52:57.491Z,325
2017-04-09T06:53:57.725Z,330
2017-04-09T06:54:57.472Z,335
2017-04-09T06:55:57.157Z,335
2017-04-09T06:56:57.153Z,335
2017-04-09T06:57:57.460Z,340
2017-04-09T06:58:57.408Z,345
2017-04-09T06:59:57.445Z,350
2017-04-09T07:00:57.439Z,355
2017-04-09T07:01:57.435Z,355
2017-04-09T07:02:57.440Z,355
2017-04-09T07:03:57.681Z,360
2017-04-09T07:04:57.424Z,370
2017-04-09T07:05:57.425Z,370
2017-04-09T07:06:57.420Z,370
2017-04-09T07:07:57.417Z,375
2017-04-09T07:08:57.717Z,375
2017-04-09T07:09:57.420Z,380
2017-04-09T07:10:57.403Z,380
2017-04-09T07:11:57.396Z,390
2017-04-09T07:12:57.397Z,400
2017-04-09T07:13:57.655Z,405
2017-04-09T07:14:57.391Z,405
2017-04-09T07:15:57.383Z,415
2017-04-09T07:16:57.385Z,435
2017-04-09T07:17:57.073Z,450
2017-04-09T07:18:57.320Z,460
2017-04-09T07:19:57.376Z,460
2017-04-09T07:20:57.369Z,460
2017-04-09T07:21:57.392Z,465
2017-04-09T07:22:57.367Z,470
2017-04-09T07:23:57.719Z,475
2017-04-09T07:24:57.359Z,470
2017-04-09T07:25:57.354Z,465
2017-04-09T07:26:57.353Z,465
2017-04-09T07:27:57.350Z,470
2017-04-09T07:28:57.638Z,475
2017-04-09T07:29:57.347Z,480
2017-04-09T07:30:57.035Z,490
2017-04-09T07:31:57.340Z,495
2017-04-09T07:32:57.337Z,500
2017-04-09T07:33:57.630Z,495
2017-04-09T07:34:57.330Z,495
2017-04-09T07:35:57.326Z,500
2017-04-09T07:36:57.033Z,510
2017-04-09T07:37:57.018Z,515
2017-04-09T07:38:57.268Z,530
2017-04-09T07:39:57.322Z,530
2017-04-09T07:40:57.317Z,530
2017-04-09T07:41:57.315Z,530
2017-04-09T07:42:57.318Z,530
2017-04-09T07:43:57.568Z,530
2017-04-09T07:44:57.309Z,535
2017-04-09T07:45:57.307Z,535
2017-04-09T07:46:57.310Z,530
2017-04-09T07:47:57.305Z,525
2017-04-09T07:48:57.354Z,530
2017-04-09T07:49:57.302Z,540
2017-04-09T07:50:57.301Z,545
2017-04-09T07:51:57.302Z,545
2017-04-09T07:52:57.297Z,545
2017-04-09T07:53:57.549Z,550
2017-04-09T07:54:57.297Z,545
2017-04-09T07:55:57.295Z,540
2017-04-09T07:56:57.293Z,550
2017-04-09T07:57:57.293Z,565
2017-04-09T07:58:57.606Z,575
2017-04-09T07:59:57.292Z,585
2017-04-09T08:00:57.290Z,590
2017-04-09T08:01:57.296Z,595
2017-04-09T08:02:57.299Z,600
2017-04-09T08:03:57.543Z,600
2017-04-09T08:04:57.292Z,600
2017-04-09T08:05:57.288Z,595
2017-04-09T08:06:57.328Z,590
2017-04-09T08:07:57.288Z,600
2017-04-09T08:08:57.643Z,605
2017-04-09T08:09:57.289Z,620
2017-04-09T08:10:57.289Z,630
2017-04-09T08:11:57.321Z,640
2017-04-09T08:12:57.285Z,645
2017-04-09T08:13:57.538Z,650
2017-04-09T08:14:57.284Z,660
2017-04-09T08:15:57.290Z,650
2017-04-09T08:16:57.288Z,670
2017-04-09T08:17:57.286Z,675
2017-04-09T08:18:57.537Z,675
2017-04-09T08:19:57.296Z,665
2017-04-09T08:20:57.289Z,660
2017-04-09T08:21:56.991Z,660
2017-04-09T08:22:57.288Z,675
2017-04-09T08:23:57.596Z,675
2017-04-09T08:24:57.293Z,675
2017-04-09T08:25:57.294Z,685
2017-04-09T08:26:57.298Z,695
2017-04-09T08:27:57.298Z,710
2017-04-09T08:28:57.545Z,715
2017-04-09T08:29:57.303Z,705
2017-04-09T08:30:57.306Z,690
2017-04-09T08:31:57.306Z,690
2017-04-09T08:32:57.301Z,700
2017-04-09T08:33:57.567Z,700
2017-04-09T08:34:57.009Z,705
2017-04-09T08:35:57.310Z,700
2017-04-09T08:36:57.308Z,690
2017-04-09T08:37:57.012Z,675
2017-04-09T08:38:57.267Z,660
2017-04-09T08:39:57.323Z,650
2017-04-09T08:40:57.324Z,650
2017-04-09T08:41:57.320Z,645
2017-04-09T08:42:57.320Z,650
2017-04-09T08:43:57.674Z,645
2017-04-09T08:44:57.324Z,635
2017-04-09T08:45:57.026Z,635
2017-04-09T08:46:57.330Z,625
2017-04-09T08:47:57.330Z,635
2017-04-09T08:48:57.586Z,660
2017-04-09T08:49:57.035Z,680
2017-04-09T08:50:57.339Z,705
2017-04-09T08:51:57.350Z,710
2017-04-09T08:52:57.346Z,720
2017-04-09T08:53:57.649Z,730
2017-04-09T08:54:57.350Z,730
2017-04-09T08:55:57.700Z,730
2017-04-09T08:56:57.356Z,725
2017-04-09T08:57:57.371Z,720
2017-04-09T08:58:57.612Z,720
2017-04-09T08:59:57.366Z,725
2017-04-09T09:00:57.388Z,725
2017-04-09T09:01:57.377Z,725
2017-04-09T09:02:57.369Z,740
2017-04-09T09:03:57.627Z,745
2017-04-09T09:04:57.080Z,735
2017-04-09T09:05:57.380Z,725
2017-04-09T09:06:57.414Z,720
2017-04-09T09:07:57.383Z,725
2017-04-09T09:08:57.638Z,750
2017-04-09T09:09:57.418Z,750
2017-04-09T09:10:57.393Z,755
2017-04-09T09:11:57.399Z,735
2017-04-09T09:12:57.400Z,700
2017-04-09T09:13:57.653Z,670
2017-04-09T09:14:57.404Z,640
2017-04-09T09:15:57.408Z,605
2017-04-09T09:16:57.412Z,570
2017-04-09T09:17:57.423Z,540
2017-04-09T09:18:57.665Z,505
2017-04-09T09:19:57.429Z,495
2017-04-09T09:20:57.428Z,500
2017-04-09T09:21:57.425Z,500
2017-04-09T09:22:57.437Z,495
2017-04-09T09:23:57.758Z,495
2017-04-09T09:24:57.448Z,500
2017-04-09T09:25:57.443Z,505
2017-04-09T09:26:57.444Z,510
2017-04-09T09:27:57.442Z,520
2017-04-09T09:28:57.796Z,530
2017-04-09T09:29:57.450Z,540
2017-04-09T09:30:57.451Z,525
2017-04-09T09:31:57.448Z,535
2017-04-09T09:32:57.479Z,545
2017-04-09T09:33:57.710Z,560
2017-04-09T09:34:57.460Z,565
2017-04-09T09:35:57.459Z,570
2017-04-09T09:36:57.468Z,570
2017-04-09T09:37:57.469Z,590
2017-04-09T09:38:57.718Z,615
2017-04-09T09:39:57.165Z,640
2017-04-09T09:40:56.868Z,665
2017-04-09T09:41:57.469Z,680
2017-04-09T09:42:57.478Z,675
2017-04-09T09:43:57.776Z,670
2017-04-09T09:44:57.473Z,665
2017-04-09T09:45:57.479Z,670
2017-04-09T09:46:57.481Z,685
2017-04-09T09:47:57.478Z,685
2017-04-09T09:48:57.730Z,700
2017-04-09T09:49:57.527Z,700
2017-04-09T09:50:57.483Z,710
2017-04-09T09:51:57.486Z,700
2017-04-09T09:52:57.498Z,685
2017-04-09T09:53:57.844Z,675
2017-04-09T09:54:57.534Z,680
2017-04-09T09:55:57.525Z,680
2017-04-09T09:56:57.498Z,665
2017-04-09T09:57:57.506Z,665
2017-04-09T09:58:57.762Z,680
2017-04-09T09:59:57.203Z,690
2017-04-09T10:00:57.510Z,690
2017-04-09T10:01:57.509Z,695
2017-04-09T10:02:57.513Z,695
2017-04-09T10:03:57.813Z,680
2017-04-09T10:04:57.522Z,675
2017-04-09T10:05:57.520Z,670
2017-04-09T10:06:57.525Z,675
2017-04-09T10:07:57.522Z,680
2017-04-09T10:08:57.779Z,700
2017-04-09T10:09:57.536Z,720
2017-04-09T10:10:57.535Z,730
2017-04-09T10:11:57.538Z,740
2017-04-09T10:12:57.550Z,750
2017-04-09T10:13:57.799Z,740
2017-04-09T10:14:57.547Z,730
2017-04-09T10:15:57.549Z,720
2017-04-09T10:16:57.547Z,700
2017-04-09T10:17:57.254Z,660
2017-04-09T10:18:57.859Z,640
2017-04-09T10:19:57.562Z,630
2017-04-09T10:20:57.562Z,635
2017-04-09T10:21:57.565Z,635
2017-04-09T10:22:57.567Z,655
2017-04-09T10:23:57.829Z,660
2017-04-09T10:24:57.578Z,655
2017-04-09T10:25:57.270Z,650
2017-04-09T10:26:57.580Z,620
2017-04-09T10:27:57.583Z,585
2017-04-09T10:28:57.885Z,550
2017-04-09T10:29:57.589Z,540
2017-04-09T10:30:57.590Z,540
2017-04-09T10:31:57.595Z,550
2017-04-09T10:32:57.592Z,565
2017-04-09T10:33:57.851Z,570
2017-04-09T10:34:57.619Z,565
2017-04-09T10:35:57.614Z,550
2017-04-09T10:36:57.604Z,510
2017-04-09T10:37:57.611Z,505
2017-04-09T10:38:57.863Z,520
2017-04-09T10:39:57.611Z,540
2017-04-09T10:40:57.614Z,565
2017-04-09T10:41:57.628Z,560
2017-04-09T10:42:57.619Z,565
2017-04-09T10:43:57.879Z,570
2017-04-09T10:44:57.635Z,565
2017-04-09T10:45:57.628Z,520
2017-04-09T10:46:57.634Z,500
2017-04-09T10:47:57.635Z,495
2017-04-09T10:48:57.887Z,490
2017-04-09T10:49:57.640Z,460
2017-04-09T10:50:57.638Z,465
2017-04-09T10:51:57.338Z,465
2017-04-09T10:52:57.654Z,485
2017-04-09T10:53:57.903Z,495
2017-04-09T10:54:57.650Z,485
2017-04-09T10:55:57.342Z,505
2017-04-09T10:56:57.648Z,515
2017-04-09T10:57:57.352Z,505
2017-04-09T10:58:58.011Z,490
2017-04-09T10:59:57.655Z,490
2017-04-09T11:00:57.658Z,480
2017-04-09T11:01:57.655Z,430
2017-04-09T11:02:57.663Z,385
2017-04-09T11:03:57.911Z,360
2017-04-09T11:04:57.664Z,355
2017-04-09T11:05:57.355Z,375
2017-04-09T11:06:57.359Z,390
2017-04-09T11:07:57.668Z,405
2017-04-09T11:08:57.916Z,415
2017-04-09T11:09:57.670Z,425
2017-04-09T11:10:57.667Z,435
2017-04-09T11:11:57.672Z,425
2017-04-09T11:12:57.670Z,405
2017-04-09T11:13:57.917Z,385
2017-04-09T11:14:57.363Z,345
2017-04-09T11:15:57.669Z,330
2017-04-09T11:16:57.668Z,330
2017-04-09T11:17:57.667Z,325
2017-04-09T11:18:57.916Z,315
2017-04-09T11:19:57.671Z,305
2017-04-09T11:20:57.366Z,290
2017-04-09T11:21:57.681Z,275
2017-04-09T11:22:57.672Z,275
2017-04-09T11:23:57.620Z,275
2017-04-09T11:24:57.721Z,285
2017-04-09T11:25:57.670Z,310
2017-04-09T11:26:57.365Z,320
2017-04-09T11:27:57.669Z,310
2017-04-09T11:28:57.921Z,295
2017-04-09T11:29:57.668Z,295
2017-04-09T11:30:57.664Z,300
2017-04-09T11:31:57.668Z,315
2017-04-09T11:32:57.664Z,315
2017-04-09T11:33:57.989Z,310
2017-04-09T11:34:57.357Z,315
2017-04-09T11:35:57.668Z,310
2017-04-09T11:36:57.659Z,305
2017-04-09T11:37:57.663Z,305
2017-04-09T11:38:57.972Z,300
2017-04-09T11:39:57.653Z,300
2017-04-09T11:40:57.654Z,315
2017-04-09T11:41:57.650Z,315
2017-04-09T11:42:57.648Z,295
2017-04-09T11:43:57.948Z,270
2017-04-09T11:44:57.647Z,260
2017-04-09T11:45:57.648Z,255
2017-04-09T11:46:57.344Z,255
2017-04-09T11:47:57.642Z,250
2017-04-09T11:48:57.940Z,250
2017-04-09T11:49:57.645Z,240
2017-04-09T11:50:57.341Z,235
2017-04-09T11:51:57.639Z,230
2017-04-09T11:52:57.641Z,230
2017-04-09T11:53:57.940Z,230
2017-04-09T11:54:57.647Z,225
2017-04-09T11:55:57.327Z,225
2017-04-09T11:56:57.325Z,225
2017-04-09T11:57:57.641Z,225
2017-04-09T11:58:57.882Z,225
2017-04-09T11:59:57.626Z,225
2017-04-09T12:00:57.624Z,225
2017-04-09T12:01:57.622Z,225
2017-04-09T12:02:57.665Z,225
2017-04-09T12:03:57.870Z,220
2017-04-09T12:04:57.616Z,220
2017-04-09T12:05:57.653Z,220
2017-04-09T12:06:57.610Z,220
2017-04-09T12:07:57.638Z,220
2017-04-09T12:08:57.857Z,220
2017-04-09T12:09:57.609Z,220
2017-04-09T12:10:57.297Z,220
2017-04-09T12:11:57.604Z,220
2017-04-09T12:12:57.602Z,220
2017-04-09T12:13:57.650Z,220
2017-04-09T12:14:57.286Z,220
2017-04-09T12:15:57.591Z,220
2017-04-09T12:16:57.586Z,220
2017-04-09T12:17:57.589Z,220
2017-04-09T12:18:57.836Z,220
2017-04-09T12:19:57.583Z,220
2017-04-09T12:20:56.969Z,225
2017-04-09T12:21:57.582Z,215
2017-04-09T12:22:57.570Z,215
2017-04-09T12:23:56.966Z,215
2017-04-09T12:24:57.515Z,215
2017-04-09T12:25:57.565Z,215
2017-04-09T12:26:57.564Z,215
2017-04-09T12:27:57.561Z,215
2017-04-09T12:28:57.558Z,215
2017-04-09T12:29:57.810Z,215
2017-04-09T12:30:57.252Z,215
2017-04-09T12:31:57.253Z,215
2017-04-09T12:32:57.251Z,215
2017-04-09T12:33:57.248Z,215
2017-04-09T12:34:57.845Z,215
2017-04-09T12:35:57.569Z,215
2017-04-09T12:36:57.542Z,215
2017-04-09T12:37:57.534Z,215
2017-04-09T12:38:57.231Z,215
2017-04-09T12:39:57.785Z,215
2017-04-09T12:40:57.527Z,215
2017-04-09T12:41:57.524Z,215
2017-04-09T12:42:57.526Z,215
2017-04-09T12:43:57.525Z,215
2017-04-09T12:44:57.771Z,220
2017-04-09T12:45:57.513Z,215
2017-04-09T12:46:57.511Z,210
2017-04-09T12:47:57.528Z,210
2017-04-09T12:48:57.522Z,210
2017-04-09T12:49:57.454Z,210
2017-04-09T12:50:57.506Z,210
2017-04-09T12:51:57.497Z,210
2017-04-09T12:52:57.508Z,210
2017-04-09T12:53:57.502Z,210
2017-04-09T12:54:57.742Z,205
2017-04-09T12:55:57.493Z,205
2017-04-09T12:56:57.489Z,205
2017-04-09T12:57:57.486Z,205
2017-04-09T12:58:57.178Z,205
2017-04-09T12:59:57.729Z,205
2017-04-09T13:00:57.474Z,205
2017-04-09T13:01:57.475Z,205
2017-04-09T13:02:57.470Z,205
2017-04-09T13:03:57.472Z,205
2017-04-09T13:04:57.766Z,200
2017-04-09T13:05:57.462Z,200
2017-04-09T13:06:57.665Z,200
2017-04-09T13:07:57.456Z,200
2017-04-09T13:08:57.459Z,200
2017-04-09T13:09:57.702Z,200
2017-04-09T13:10:57.139Z,200
2017-04-09T13:11:57.442Z,200
2017-04-09T13:12:57.445Z,200
2017-04-09T13:13:57.456Z,200
2017-04-09T13:14:57.692Z,200
2017-04-09T13:15:57.433Z,200
2017-04-09T13:16:57.427Z,195
2017-04-09T13:17:57.429Z,195
2017-04-09T13:18:57.425Z,195
2017-04-09T13:19:57.769Z,195
2017-04-09T13:20:57.421Z,195
2017-04-09T13:21:57.420Z,195
2017-04-09T13:22:57.411Z,195
2017-04-09T13:23:57.408Z,195
2017-04-09T13:24:57.657Z,195
2017-04-09T13:25:57.407Z,195
2017-04-09T13:26:57.401Z,195
2017-04-09T13:27:57.398Z,195
2017-04-09T13:28:57.093Z,195
2017-04-09T13:29:57.700Z,195
2017-04-09T13:30:57.398Z,195
2017-04-09T13:31:57.385Z,195
2017-04-09T13:32:57.387Z,200
2017-04-09T13:33:57.385Z,195
2017-04-09T13:34:57.632Z,195
2017-04-09T13:35:57.383Z,195
2017-04-09T13:36:57.374Z,195
2017-04-09T13:37:57.071Z,195
2017-04-09T13:38:57.417Z,195
2017-04-09T13:39:57.720Z,195
2017-04-09T13:40:57.367Z,190
2017-04-09T13:41:57.363Z,190
2017-04-09T13:42:57.359Z,190
2017-04-09T13:43:57.354Z,195
2017-04-09T13:44:57.612Z,195
2017-04-09T13:45:57.350Z,195
2017-04-09T13:46:57.351Z,195
2017-04-09T13:47:57.044Z,195
2017-04-09T13:48:57.361Z,195
2017-04-09T13:49:57.590Z,195
2017-04-09T13:50:57.340Z,195
2017-04-09T13:51:57.375Z,195
2017-04-09T13:52:57.028Z,195
2017-04-09T13:53:57.329Z,195
2017-04-09T13:54:57.674Z,195
2017-04-09T13:55:57.321Z,195
2017-04-09T13:56:57.321Z,195
2017-04-09T13:57:57.037Z,195
2017-04-09T13:58:57.319Z,195
2017-04-09T13:59:57.258Z,195
2017-04-09T14:00:57.313Z,195
2017-04-09T14:01:57.352Z,195
2017-04-09T14:02:57.308Z,195
2017-04-09T14:03:56.995Z,190
2017-04-09T14:04:57.551Z,190
2017-04-09T14:05:57.293Z,190
2017-04-09T14:06:57.294Z,195